Terminal Aerodrome Forecast
Issued by NWS

Home | Current Version | Previous Version | Text Only | Print | Product List | Glossary On
Versions: 1 2 3 4 5 6 7 8 9 10 11 12 13 14 15 16
824
FTPA31 PHFO 022338
TAFHOG
TAF
PHOG 022338Z 0300/0324 08011KT P6SM VCSH FEW030 SCT050 BKN200
     FM030500 10010KT P6SM VCSH FEW030 BKN050 BKN200
     FM031000 15005KT P6SM VCSH FEW030 BKN050
     FM032100 03008KT P6SM VCSH FEW030 BKN050=

USA.gov is the U.S. government's official web portal to all federal, state and local government web resources and services.